This is the latest recevied weather packets stored in our database for station/object N1ORT. If no packets are shown the sender has not sent any weather packets the latest 10 day(s).
| Time | Temp. | Humidity | Pressure | Rain* | Wind** | Luminosity | Snow |
|---|---|---|---|---|---|---|---|
| 1777128459 | 10° C | 42% | 1017 hPa | 0 mm | - | 679 W/m² | - |
| 1777128156 | 10° C | 42% | 1017 hPa | 0 mm | - | 533 W/m² | - |
| 1777127854 | 10° C | 44% | 1017 hPa | 0 mm | - | 557 W/m² | - |
| 1777127551 | 9.44° C | 43% | 1017.2 hPa | 0 mm | - | 455 W/m² | - |
| 1777127247 | 10.56° C | 45% | 1017.2 hPa | 0 mm | - | 736 W/m² | - |
| 1777126943 | 10° C | 41% | 1017 hPa | 0 mm | - | 857 W/m² | - |
| 1777126639 | 9.44° C | 42% | 1017.1 hPa | 0 mm | - | 597 W/m² | - |
| 1777126336 | 8.89° C | 42% | 1017.3 hPa | 0 mm | - | 637 W/m² | - |
| 1777126031 | 10° C | 41% | 1017.2 hPa | 0 mm | - | 673 W/m² | - |
| 1777125729 | 10° C | 42% | 1017.2 hPa | 0 mm | - | 708 W/m² | - |
| 1777125424 | 10° C | 43% | 1017.2 hPa | 0 mm | - | 677 W/m² | - |
| 1777125119 | 9.44° C | 42% | 1017.3 hPa | 0 mm | - | 696 W/m² | - |
| 1777124815 | 8.89° C | 43% | 1017.2 hPa | 0 mm | - | 730 W/m² | - |
| 1777124510 | 9.44° C | 42% | 1017.4 hPa | 0 mm | - | 713 W/m² | - |
| 1777124208 | 9.44° C | 44% | 1017.4 hPa | 0 mm | - | 601 W/m² | - |
| 1777123905 | 8.89° C | 45% | 1017.4 hPa | 0 mm | - | 685 W/m² | - |
| 1777123601 | 8.33° C | 46% | 1017.4 hPa | 0 mm | - | 661 W/m² | - |
| 1777123297 | 8.89° C | 46% | 1017.6 hPa | 0 mm | - | 407 W/m² | - |
| 1777122993 | 8.33° C | 47% | 1017.5 hPa | 0 mm | - | 597 W/m² | - |
| 1777122690 | 8.33° C | 47% | 1017.9 hPa | 0 mm | - | 408 W/m² | - |
| 1777122385 | 8.33° C | 47% | 1017.4 hPa | 0 mm | - | 610 W/m² | - |
| 1777122082 | 7.78° C | 48% | 1017.7 hPa | 0 mm | - | 585 W/m² | - |
| 1777121778 | 7.78° C | 48% | 1017.6 hPa | 0 mm | - | 468 W/m² | - |
| 1777121475 | 7.78° C | 49% | 1017.6 hPa | 0 mm | - | 381 W/m² | - |
| 1777121175 | 7.22° C | 52% | 1017.8 hPa | 0 mm | - | 486 W/m² | - |
* Rain latest hour (hover to see other rain measurements)
** Current wind speed in m/s (hover to see current wind gust speed)